Time;durP1;ratioP1;P1;durP2;ratioP2;P2;SDS_P1;SDS_P2;PMS_P1;PMS_P2;Temp;Humidity;BMP_temperature;BMP_pressure;BME280_temperature;BME280_humidity;BME280_pressure;Samples;Min_cycle;Max_cycle;Signal;HPM_P1;HPM_P2
2022/09/08 00:00:24;;;;;;;17.52;16.00;;;;;;;;;;5120343;27;20050;-84
2022/09/08 00:02:50;;;;;;;18.20;16.55;;;;;;;;;;5114892;27;20043;-84
2022/09/08 00:05:18;;;;;;;17.30;15.75;;;;;;;;;;5121644;27;20042;-85
2022/09/08 00:07:45;;;;;;;18.50;16.90;;;;;;;;;;5116507;27;20046;-85
2022/09/08 00:10:11;;;;;;;17.58;15.82;;;;;;;;;;5120829;27;20043;-85
2022/09/08 00:12:41;;;;;;;17.40;15.93;;;;;;;;;;5143706;27;20094;-84
2022/09/08 00:15:08;;;;;;;18.15;16.58;;;;;;;;;;5131015;27;20115;-85
2022/09/08 00:17:34;;;;;;;17.65;15.88;;;;;;;;;;5116098;27;20039;-84
2022/09/08 00:20:00;;;;;;;17.42;15.98;;;;;;;;;;5111651;27;20068;-85
2022/09/08 00:22:26;;;;;;;18.15;16.55;;;;;;;;;;5116827;27;20086;-85
2022/09/08 00:24:52;;;;;;;17.17;15.52;;;;;;;;;;5149151;27;20058;-85
2022/09/08 00:27:18;;;;;;;17.52;15.88;;;;;;;;;;5139692;27;20051;-84
2022/09/08 00:29:44;;;;;;;18.00;16.50;;;;;;;;;;5123743;27;20047;-84
2022/09/08 00:32:11;;;;;;;17.00;15.30;;;;;;;;;;5112933;27;20065;-85
2022/09/08 00:34:37;;;;;;;16.55;15.13;;;;;;;;;;5122636;27;20046;-84
2022/09/08 00:37:03;;;;;;;17.58;15.85;;;;;;;;;;5130753;27;20145;-84
2022/09/08 00:39:29;;;;;;;16.63;15.13;;;;;;;;;;5147992;27;20044;-85
2022/09/08 00:41:58;;;;;;;16.85;15.25;;;;;;;;;;5115737;27;20390;-84
2022/09/08 00:44:36;;;;;;;17.10;15.60;;;;;;;;;;5122023;27;20042;-84
2022/09/08 00:47:03;;;;;;;17.45;15.75;;;;;;;;;;5120505;27;20130;-83
2022/09/08 00:49:29;;;;;;;17.25;15.70;;;;;;;;;;5117202;27;20043;-83
2022/09/08 00:51:58;;;;;;;16.42;15.02;;;;;;;;;;5115146;27;20072;-84
2022/09/08 00:54:25;;;;;;;17.88;16.27;;;;;;;;;;5133572;27;20043;-85
2022/09/08 00:56:51;;;;;;;16.17;14.68;;;;;;;;;;5131517;27;20035;-84
2022/09/08 00:59:19;;;;;;;16.60;15.07;;;;;;;;;;5145816;27;20046;-84
2022/09/08 01:01:45;;;;;;;16.40;14.88;;;;;;;;;;5125272;27;20042;-84
2022/09/08 01:04:11;;;;;;;16.67;15.07;;;;;;;;;;5149012;27;20049;-85
2022/09/08 01:12:44;;;;;;;19.88;18.08;;;;;;;;;;5122696;27;20039;-84
2022/09/08 01:15:11;;;;;;;19.30;17.50;;;;;;;;;;5150464;27;20063;-85
2022/09/08 01:17:38;;;;;;;18.88;17.17;;;;;;;;;;5125557;27;20121;-85
2022/09/08 01:20:08;;;;;;;19.60;17.70;;;;;;;;;;5127263;27;20112;-86
2022/09/08 01:22:53;;;;;;;19.55;17.85;;;;;;;;;;5145969;27;20043;-87
2022/09/08 01:25:38;;;;;;;18.13;16.63;;;;;;;;;;5135131;27;20505;-86
2022/09/08 01:28:10;;;;;;;19.45;17.67;;;;;;;;;;5140479;27;20047;-86
2022/09/08 01:30:36;;;;;;;19.35;17.60;;;;;;;;;;5124528;27;20180;-87
2022/09/08 01:33:06;;;;;;;18.77;17.08;;;;;;;;;;5120176;27;20047;-87
2022/09/08 01:35:34;;;;;;;18.63;17.00;;;;;;;;;;5127295;27;20071;-87
2022/09/08 01:38:00;;;;;;;17.95;16.30;;;;;;;;;;5123287;27;20075;-87
2022/09/08 01:40:26;;;;;;;19.45;17.85;;;;;;;;;;5118925;27;20335;-87
2022/09/08 01:42:52;;;;;;;19.25;17.35;;;;;;;;;;5132861;27;20558;-87
2022/09/08 01:45:18;;;;;;;20.02;18.33;;;;;;;;;;5130006;27;20095;-86
2022/09/08 01:47:44;;;;;;;19.80;18.05;;;;;;;;;;5143095;27;20039;-87
2022/09/08 01:50:10;;;;;;;18.98;17.20;;;;;;;;;;5120529;27;20471;-87
2022/09/08 01:52:36;;;;;;;20.00;18.20;;;;;;;;;;5136190;27;20574;-86
2022/09/08 01:55:03;;;;;;;19.48;17.75;;;;;;;;;;5122252;27;20485;-87
2022/09/08 01:57:29;;;;;;;18.80;17.20;;;;;;;;;;5125358;27;20398;-86
2022/09/08 01:59:55;;;;;;;19.10;17.40;;;;;;;;;;5133409;27;20492;-86
2022/09/08 02:02:21;;;;;;;21.75;19.85;;;;;;;;;;5142738;27;20582;-87
2022/09/08 02:04:47;;;;;;;20.27;18.38;;;;;;;;;;5122411;27;20035;-87
2022/09/08 02:07:13;;;;;;;19.48;17.75;;;;;;;;;;5137904;27;20046;-88
2022/09/08 02:09:39;;;;;;;19.40;17.60;;;;;;;;;;5135668;27;20065;-87
2022/09/08 02:12:05;;;;;;;19.70;17.73;;;;;;;;;;5127698;27;20536;-87
2022/09/08 02:14:31;;;;;;;19.23;17.52;;;;;;;;;;5159412;27;20057;-87
2022/09/08 02:16:57;;;;;;;20.13;18.33;;;;;;;;;;5122795;27;20043;-87
2022/09/08 02:19:23;;;;;;;19.65;17.88;;;;;;;;;;5123022;27;20103;-87
2022/09/08 02:21:49;;;;;;;19.80;18.05;;;;;;;;;;5140382;27;20049;-85
2022/09/08 02:24:15;;;;;;;19.02;17.25;;;;;;;;;;5121172;27;20061;-84
2022/09/08 02:26:41;;;;;;;20.15;18.25;;;;;;;;;;5141447;27;20047;-85
2022/09/08 02:29:10;;;;;;;19.13;17.27;;;;;;;;;;5137914;27;20053;-85
2022/09/08 02:31:36;;;;;;;20.13;18.23;;;;;;;;;;5134122;27;20038;-85
2022/09/08 02:34:02;;;;;;;19.23;17.52;;;;;;;;;;5120921;27;20500;-85
2022/09/08 02:36:28;;;;;;;19.65;17.75;;;;;;;;;;5123740;27;20051;-85
2022/09/08 02:38:55;;;;;;;19.35;17.70;;;;;;;;;;5121960;27;20054;-85
2022/09/08 02:41:25;;;;;;;20.40;18.65;;;;;;;;;;5147493;27;20527;-85
2022/09/08 02:43:51;;;;;;;19.02;17.23;;;;;;;;;;5136582;27;20050;-85
2022/09/08 02:46:17;;;;;;;19.65;17.95;;;;;;;;;;5140227;27;20035;-85
2022/09/08 02:48:43;;;;;;;20.38;18.48;;;;;;;;;;5127993;27;20053;-85
2022/09/08 02:51:11;;;;;;;21.15;19.35;;;;;;;;;;5146292;27;20399;-86
2022/09/08 02:53:38;;;;;;;20.92;18.95;;;;;;;;;;5115292;27;20043;-85
2022/09/08 02:56:05;;;;;;;20.70;18.80;;;;;;;;;;5141000;27;20123;-85
2022/09/08 02:58:31;;;;;;;20.30;18.38;;;;;;;;;;5139507;27;20050;-83
2022/09/08 03:00:58;;;;;;;20.02;18.30;;;;;;;;;;5135347;27;20159;-85
2022/09/08 03:03:24;;;;;;;20.90;18.77;;;;;;;;;;5137273;27;20091;-86
2022/09/08 03:05:51;;;;;;;21.17;19.27;;;;;;;;;;5116192;27;20045;-85
2022/09/08 03:08:17;;;;;;;20.23;18.33;;;;;;;;;;5157663;27;20085;-86
2022/09/08 03:10:43;;;;;;;21.90;19.90;;;;;;;;;;5127661;27;20038;-85
2022/09/08 03:13:10;;;;;;;22.17;20.08;;;;;;;;;;5146005;27;20049;-86
2022/09/08 03:15:36;;;;;;;21.85;19.95;;;;;;;;;;5137441;27;20397;-86
2022/09/08 03:18:04;;;;;;;21.25;19.45;;;;;;;;;;5146751;27;20039;-86
2022/09/08 03:20:30;;;;;;;22.85;20.67;;;;;;;;;;5118950;27;20047;-86
2022/09/08 03:22:56;;;;;;;23.20;21.10;;;;;;;;;;5121310;27;20042;-85
2022/09/08 03:25:22;;;;;;;22.83;20.80;;;;;;;;;;5125345;27;20104;-85
2022/09/08 03:27:48;;;;;;;22.45;20.38;;;;;;;;;;5155366;27;20055;-85
2022/09/08 03:30:16;;;;;;;23.10;21.00;;;;;;;;;;5118491;27;20043;-85
2022/09/08 03:32:43;;;;;;;22.50;20.38;;;;;;;;;;5131050;27;20126;-84
2022/09/08 03:35:10;;;;;;;22.33;20.30;;;;;;;;;;5141842;27;20508;-85
2022/09/08 03:37:38;;;;;;;22.88;20.77;;;;;;;;;;5118582;27;20038;-85
2022/09/08 03:40:05;;;;;;;24.58;22.30;;;;;;;;;;5126432;27;20097;-85
2022/09/08 03:42:34;;;;;;;23.58;21.38;;;;;;;;;;5130464;27;20043;-85
2022/09/08 03:45:01;;;;;;;23.80;21.52;;;;;;;;;;5117285;27;20047;-84
2022/09/08 03:47:27;;;;;;;24.42;21.88;;;;;;;;;;5118355;27;20050;-84
2022/09/08 03:49:53;;;;;;;23.27;21.27;;;;;;;;;;5121721;27;20125;-85
2022/09/08 03:52:19;;;;;;;24.80;22.40;;;;;;;;;;5132310;27;20043;-84
2022/09/08 03:54:47;;;;;;;23.83;21.73;;;;;;;;;;5139857;27;20473;-85
2022/09/08 03:57:14;;;;;;;24.88;22.63;;;;;;;;;;5135103;27;20122;-85
2022/09/08 03:59:42;;;;;;;25.23;22.83;;;;;;;;;;5116486;27;20437;-85
2022/09/08 04:02:07;;;;;;;25.60;23.33;;;;;;;;;;5124096;27;20047;-85
2022/09/08 04:04:34;;;;;;;25.23;22.67;;;;;;;;;;5148317;27;20050;-85
2022/09/08 04:07:00;;;;;;;25.42;23.13;;;;;;;;;;5124220;27;20043;-85
2022/09/08 04:09:26;;;;;;;26.05;23.55;;;;;;;;;;5124352;27;21396;-85
2022/09/08 04:11:52;;;;;;;26.73;24.13;;;;;;;;;;5113146;27;20394;-85
2022/09/08 04:14:18;;;;;;;27.15;24.55;;;;;;;;;;5142897;27;20494;-85
2022/09/08 04:16:44;;;;;;;25.52;23.25;;;;;;;;;;5137876;27;20050;-85
2022/09/08 04:19:11;;;;;;;27.30;24.88;;;;;;;;;;5158477;27;20049;-86
2022/09/08 04:21:37;;;;;;;27.60;25.10;;;;;;;;;;5143192;27;20512;-85
2022/09/08 04:24:03;;;;;;;28.08;25.38;;;;;;;;;;5138311;27;20063;-85
2022/09/08 04:26:29;;;;;;;29.60;26.88;;;;;;;;;;5119419;27;20075;-85
2022/09/08 04:28:56;;;;;;;30.60;27.70;;;;;;;;;;5143752;27;20082;-85
2022/09/08 04:31:22;;;;;;;29.10;26.20;;;;;;;;;;5154619;27;20187;-85
2022/09/08 04:33:48;;;;;;;29.17;26.58;;;;;;;;;;5144730;27;20038;-83
2022/09/08 04:36:16;;;;;;;29.58;26.67;;;;;;;;;;5153349;27;20137;-85
2022/09/08 04:38:42;;;;;;;31.52;28.38;;;;;;;;;;5112718;27;20608;-85
2022/09/08 04:41:10;;;;;;;29.15;26.40;;;;;;;;;;5113714;27;20126;-84
2022/09/08 04:43:37;;;;;;;29.10;26.40;;;;;;;;;;5152082;27;20047;-84
2022/09/08 04:46:04;;;;;;;29.33;26.42;;;;;;;;;;5113161;27;20172;-84
2022/09/08 04:48:31;;;;;;;30.17;27.27;;;;;;;;;;5141948;27;20042;-84
2022/09/08 04:50:58;;;;;;;31.75;28.73;;;;;;;;;;5136315;27;20126;-83
2022/09/08 04:53:25;;;;;;;31.25;28.23;;;;;;;;;;5139491;27;20039;-83
2022/09/08 04:55:51;;;;;;;31.63;28.63;;;;;;;;;;5117445;27;20129;-83
2022/09/08 04:58:17;;;;;;;31.58;28.60;;;;;;;;;;5108809;27;20051;-83
2022/09/08 05:00:44;;;;;;;31.08;27.75;;;;;;;;;;5105213;27;20498;-83
2022/09/08 05:03:10;;;;;;;31.88;28.80;;;;;;;;;;5109176;27;20482;-83
2022/09/08 05:05:37;;;;;;;33.55;30.23;;;;;;;;;;5107434;27;20521;-83
2022/09/08 05:08:03;;;;;;;32.47;29.38;;;;;;;;;;5112455;27;20058;-82
2022/09/08 05:10:31;;;;;;;32.47;29.52;;;;;;;;;;5109465;27;20038;-83
2022/09/08 05:12:57;;;;;;;33.25;30.25;;;;;;;;;;5136655;27;20047;-83
2022/09/08 05:15:23;;;;;;;35.17;31.27;;;;;;;;;;5122610;27;20078;-84
2022/09/08 05:17:49;;;;;;;32.95;29.83;;;;;;;;;;5129543;27;20124;-83
2022/09/08 05:20:16;;;;;;;31.73;28.63;;;;;;;;;;5131577;27;20046;-83
2022/09/08 05:22:41;;;;;;;32.53;29.23;;;;;;;;;;5137843;27;20597;-83
2022/09/08 05:25:08;;;;;;;31.98;28.92;;;;;;;;;;5125981;27;20047;-83
2022/09/08 05:27:34;;;;;;;32.13;29.15;;;;;;;;;;5128428;27;20084;-83
2022/09/08 05:30:00;;;;;;;32.00;28.83;;;;;;;;;;5122309;27;20043;-83
2022/09/08 05:32:26;;;;;;;32.05;28.77;;;;;;;;;;5115748;27;20067;-83
2022/09/08 05:34:52;;;;;;;28.33;25.63;;;;;;;;;;5143619;27;20047;-82
2022/09/08 05:37:18;;;;;;;26.35;23.67;;;;;;;;;;5116019;27;20078;-82
2022/09/08 05:39:46;;;;;;;24.80;22.50;;;;;;;;;;5141164;27;20047;-82
2022/09/08 05:42:12;;;;;;;26.77;24.17;;;;;;;;;;5116831;27;20096;-84
2022/09/08 05:44:39;;;;;;;27.25;24.63;;;;;;;;;;5111330;27;20131;-82
2022/09/08 05:47:05;;;;;;;28.13;25.33;;;;;;;;;;5112711;27;20035;-84
2022/09/08 05:49:31;;;;;;;28.23;25.40;;;;;;;;;;5117583;27;20047;-83
2022/09/08 05:51:58;;;;;;;27.00;24.40;;;;;;;;;;5132517;27;20046;-83
2022/09/08 05:54:24;;;;;;;25.40;22.92;;;;;;;;;;5143596;27;20036;-83
2022/09/08 05:56:50;;;;;;;25.02;22.48;;;;;;;;;;5149028;27;20047;-83
2022/09/08 05:59:16;;;;;;;23.45;21.05;;;;;;;;;;5128204;27;20103;-84
2022/09/08 06:01:42;;;;;;;23.00;20.80;;;;;;;;;;5136673;27;20048;-84
2022/09/08 06:04:08;;;;;;;21.73;19.55;;;;;;;;;;5117089;27;20043;-84
2022/09/08 06:06:35;;;;;;;20.88;18.80;;;;;;;;;;5120294;27;20031;-84
2022/09/08 06:09:02;;;;;;;20.63;18.63;;;;;;;;;;5117210;27;20038;-83
2022/09/08 06:11:29;;;;;;;21.83;19.58;;;;;;;;;;5126373;27;20055;-84
2022/09/08 06:13:55;;;;;;;19.60;17.65;;;;;;;;;;5128040;27;20038;-84
2022/09/08 06:16:21;;;;;;;19.77;17.65;;;;;;;;;;5138540;27;20596;-84
2022/09/08 06:18:48;;;;;;;17.42;15.60;;;;;;;;;;5140552;27;20519;-84
2022/09/08 06:21:19;;;;;;;19.30;16.65;;;;;;;;;;5162990;27;20031;-85
2022/09/08 06:23:48;;;;;;;22.25;17.75;;;;;;;;;;5142342;27;20035;-84
2022/09/08 06:26:27;;;;;;;14.73;12.55;;;;;;;;;;5117733;27;20047;-85
2022/09/08 06:29:06;;;;;;;16.02;10.50;;;;;;;;;;5117852;27;20043;-84
2022/09/08 06:31:35;;;;;;;17.48;6.63;;;;;;;;;;5117036;27;20496;-82
2022/09/08 06:34:04;;;;;;;15.02;7.00;;;;;;;;;;5139411;27;20030;-81
2022/09/08 06:36:42;;;;;;;14.00;6.95;;;;;;;;;;5121141;27;20039;-81
2022/09/08 06:39:13;;;;;;;15.80;6.55;;;;;;;;;;5131283;27;20050;-81
2022/09/08 06:41:48;;;;;;;11.80;5.72;;;;;;;;;;5135048;27;20142;-80
2022/09/08 06:44:17;;;;;;;6.53;4.25;;;;;;;;;;5131330;27;20122;-80
2022/09/08 06:46:44;;;;;;;8.07;4.55;;;;;;;;;;5158891;27;20113;-80
2022/09/08 06:49:11;;;;;;;7.35;4.13;;;;;;;;;;5144511;27;20042;-80
2022/09/08 06:51:45;;;;;;;6.55;3.90;;;;;;;;;;5135096;27;20062;-80
2022/09/08 06:54:17;;;;;;;5.10;3.60;;;;;;;;;;5129563;27;20042;-80
2022/09/08 06:57:13;;;;;;;5.55;3.63;;;;;;;;;;5137780;27;20096;-80
2022/09/08 07:00:02;;;;;;;6.72;3.95;;;;;;;;;;5111040;27;20134;-90
2022/09/08 07:02:34;;;;;;;8.75;3.30;;;;;;;;;;5128180;27;20507;-80
2022/09/08 07:05:03;;;;;;;6.25;3.00;;;;;;;;;;5129984;27;20050;-80
2022/09/08 07:07:41;;;;;;;4.25;3.05;;;;;;;;;;5150401;27;20553;-80
2022/09/08 07:10:17;;;;;;;7.07;3.15;;;;;;;;;;5149080;27;20046;-80
2022/09/08 07:12:51;;;;;;;6.97;3.78;;;;;;;;;;5154794;27;22294;-80
2022/09/08 07:15:35;;;;;;;6.88;3.47;;;;;;;;;;5129747;27;20035;-79
2022/09/08 07:18:16;;;;;;;5.18;3.47;;;;;;;;;;5134937;27;20076;-80
2022/09/08 07:20:42;;;;;;;5.15;3.67;;;;;;;;;;5149245;27;20046;-80
2022/09/08 07:23:20;;;;;;;7.45;3.30;;;;;;;;;;5152632;27;20046;-79
2022/09/08 07:25:49;;;;;;;4.63;3.13;;;;;;;;;;5115389;27;20047;-78
2022/09/08 07:28:20;;;;;;;3.42;3.00;;;;;;;;;;5137702;27;20092;-78
2022/09/08 07:30:49;;;;;;;3.88;2.80;;;;;;;;;;5139905;27;20039;-78
2022/09/08 07:33:19;;;;;;;3.13;2.65;;;;;;;;;;5138167;27;20039;-78
2022/09/08 07:35:49;;;;;;;2.70;2.50;;;;;;;;;;5129157;27;20420;-79
2022/09/08 07:38:18;;;;;;;2.60;2.40;;;;;;;;;;5115949;27;20402;-78
2022/09/08 07:40:48;;;;;;;3.08;2.70;;;;;;;;;;5128030;27;20049;-78
2022/09/08 07:43:15;;;;;;;2.83;2.42;;;;;;;;;;5126395;27;20054;-78
2022/09/08 07:45:48;;;;;;;2.97;2.50;;;;;;;;;;5126400;27;20046;-78
2022/09/08 07:48:14;;;;;;;;;;;;;;;;;;5137783;27;20057;-78
2022/09/08 07:50:54;;;;;;;3.17;2.53;;;;;;;;;;5140477;27;19919;-78
2022/09/08 07:53:22;;;;;;;3.08;2.55;;;;;;;;;;5143732;27;20374;-78
2022/09/08 07:55:48;;;;;;;2.65;2.45;;;;;;;;;;5150652;27;20046;-79
2022/09/08 07:58:17;;;;;;;3.00;2.22;;;;;;;;;;5131066;27;20095;-78
2022/09/08 08:00:57;;;;;;;3.13;2.80;;;;;;;;;;5133525;27;20398;-78
2022/09/08 08:03:32;;;;;;;2.70;2.42;;;;;;;;;;5150522;27;20042;-78
2022/09/08 08:06:05;;;;;;;3.03;2.58;;;;;;;;;;5146135;27;20039;-79
2022/09/08 08:08:31;;;;;;;;;;;;;;;;;;5125003;27;20448;-78
2022/09/08 08:10:58;;;;;;;3.35;2.70;;;;;;;;;;5120836;27;19930;-78
2022/09/08 08:13:25;;;;;;;5.20;3.00;;;;;;;;;;5114195;27;20046;-78
2022/09/08 08:16:00;;;;;;;3.95;2.92;;;;;;;;;;5117791;27;20054;-78
2022/09/08 08:18:38;;;;;;;2.90;2.42;;;;;;;;;;5133385;27;20117;-78
2022/09/08 08:21:25;;;;;;;3.22;2.60;;;;;;;;;;5118931;27;20095;-78
2022/09/08 08:24:10;;;;;;;5.22;3.13;;;;;;;;;;5133463;27;20043;-79
2022/09/08 08:26:45;;;;;;;5.43;2.60;;;;;;;;;;5114848;27;20040;-78
2022/09/08 08:29:17;;;;;;;3.88;2.38;;;;;;;;;;5134348;27;20047;-79
2022/09/08 08:31:50;;;;;;;3.70;2.75;;;;;;;;;;5121052;27;21364;-79
2022/09/08 08:34:27;;;;;;;3.50;2.70;;;;;;;;;;5147628;27;20035;-79
2022/09/08 08:36:54;;;;;;;3.10;2.88;;;;;;;;;;5130232;27;20051;-79
2022/09/08 08:39:23;;;;;;;3.65;2.80;;;;;;;;;;5136148;27;20043;-79
2022/09/08 08:42:08;;;;;;;2.90;2.65;;;;;;;;;;5141009;27;20095;-79
2022/09/08 08:44:52;;;;;;;2.83;2.58;;;;;;;;;;5115255;27;20077;-79
2022/09/08 08:47:38;;;;;;;2.90;2.70;;;;;;;;;;5137314;27;20042;-79
2022/09/08 08:50:04;;;;;;;3.35;2.83;;;;;;;;;;5143566;27;20095;-79
2022/09/08 08:52:39;;;;;;;3.08;2.85;;;;;;;;;;5116505;27;20072;-79
2022/09/08 08:55:25;;;;;;;3.88;3.10;;;;;;;;;;5127213;27;20034;-78
2022/09/08 08:57:57;;;;;;;5.82;3.28;;;;;;;;;;5114981;27;20053;-79
2022/09/08 09:00:24;;;;;;;5.07;3.00;;;;;;;;;;5149737;27;20401;-79
2022/09/08 09:03:09;;;;;;;3.47;3.17;;;;;;;;;;5146558;27;20502;-78
2022/09/08 09:05:51;;;;;;;3.40;2.95;;;;;;;;;;5117217;27;20054;-78
2022/09/08 09:08:26;;;;;;;4.78;3.25;;;;;;;;;;5120585;27;20073;-78
2022/09/08 09:11:02;;;;;;;2.97;2.72;;;;;;;;;;5120815;27;20080;-78
2022/09/08 09:13:31;;;;;;;4.75;3.08;;;;;;;;;;5133212;27;20039;-78
2022/09/08 09:16:06;;;;;;;3.63;3.33;;;;;;;;;;5118615;27;20062;-78
2022/09/08 09:18:41;;;;;;;4.28;3.65;;;;;;;;;;5137571;27;20661;-78
2022/09/08 09:21:16;;;;;;;5.78;4.93;;;;;;;;;;5115972;27;20154;-78
2022/09/08 09:23:50;;;;;;;5.13;4.35;;;;;;;;;;5115794;27;20062;-78
2022/09/08 09:26:20;;;;;;;6.00;4.45;;;;;;;;;;5121818;27;20047;-77
2022/09/08 09:28:54;;;;;;;5.28;4.13;;;;;;;;;;5123020;27;20081;-77
2022/09/08 09:31:26;;;;;;;7.38;4.95;;;;;;;;;;5123329;27;20039;-78
2022/09/08 09:34:11;;;;;;;4.80;4.40;;;;;;;;;;5134023;27;20159;-78
2022/09/08 09:36:37;;;;;;;7.68;5.40;;;;;;;;;;5132377;27;20042;-78
2022/09/08 09:39:30;;;;;;;6.72;4.90;;;;;;;;;;5148244;27;20039;-77
2022/09/08 09:42:14;;;;;;;5.00;4.55;;;;;;;;;;5151374;27;20050;-79
2022/09/08 09:44:59;;;;;;;5.63;5.10;;;;;;;;;;5134358;27;20073;-77
2022/09/08 09:47:31;;;;;;;6.40;5.32;;;;;;;;;;5152782;27;20262;-84
2022/09/08 09:50:13;;;;;;;5.22;4.72;;;;;;;;;;5143847;27;20427;-83
2022/09/08 09:52:52;;;;;;;5.65;5.05;;;;;;;;;;5149751;27;20405;-78
2022/09/08 09:55:24;;;;;;;4.88;4.47;;;;;;;;;;5128213;27;20047;-78
2022/09/08 09:58:11;;;;;;;5.43;4.93;;;;;;;;;;5149133;27;20063;-77
2022/09/08 10:00:57;;;;;;;6.32;4.72;;;;;;;;;;5131016;27;20042;-77
2022/09/08 10:03:26;;;;;;;5.10;4.60;;;;;;;;;;5124173;27;20121;-78
2022/09/08 10:06:11;;;;;;;5.95;4.43;;;;;;;;;;5149799;27;20046;-78
2022/09/08 10:08:55;;;;;;;4.82;4.00;;;;;;;;;;5146089;27;20077;-78
2022/09/08 10:11:30;;;;;;;5.03;4.63;;;;;;;;;;5127494;27;20045;-78
2022/09/08 10:13:56;;;;;;;5.70;4.28;;;;;;;;;;5135371;27;20125;-78
2022/09/08 10:16:41;;;;;;;4.53;3.65;;;;;;;;;;5151758;27;20159;-78
2022/09/08 10:19:22;;;;;;;4.38;3.97;;;;;;;;;;5145019;27;20455;-79
2022/09/08 10:21:58;;;;;;;4.03;3.72;;;;;;;;;;5142222;27;20051;-78
2022/09/08 10:24:31;;;;;;;4.40;4.03;;;;;;;;;;5115050;27;20569;-78
2022/09/08 10:27:03;;;;;;;4.68;3.80;;;;;;;;;;5118834;27;20055;-78
2022/09/08 10:29:34;;;;;;;5.28;3.75;;;;;;;;;;5115726;27;20538;-80
2022/09/08 10:32:00;;;;;;;4.43;3.28;;;;;;;;;;5143414;27;20122;-80
2022/09/08 10:34:29;;;;;;;5.60;3.13;;;;;;;;;;5140327;27;20181;-80
2022/09/08 10:37:09;;;;;;;3.55;3.35;;;;;;;;;;5125551;27;20038;-80
2022/09/08 10:39:53;;;;;;;3.40;3.10;;;;;;;;;;5144627;27;20043;-80
2022/09/08 10:42:32;;;;;;;4.60;3.15;;;;;;;;;;5135534;27;20486;-80
2022/09/08 10:45:17;;;;;;;3.38;2.90;;;;;;;;;;5119062;27;20176;-80
2022/09/08 10:48:01;;;;;;;3.35;3.08;;;;;;;;;;5143830;27;20099;-80
2022/09/08 10:50:31;;;;;;;4.38;2.78;;;;;;;;;;5120400;27;20502;-80
2022/09/08 10:52:57;;;;;;;3.25;2.80;;;;;;;;;;5117016;27;20050;-81
2022/09/08 10:55:30;;;;;;;3.40;2.90;;;;;;;;;;5135388;27;20130;-80
2022/09/08 10:57:56;;;;;;;3.42;2.60;;;;;;;;;;5138512;27;20039;-80
2022/09/08 11:00:23;;;;;;;3.05;2.50;;;;;;;;;;5115145;27;20065;-80
2022/09/08 11:03:07;;;;;;;3.40;2.72;;;;;;;;;;5137918;27;20111;-80
2022/09/08 11:05:41;;;;;;;3.08;2.55;;;;;;;;;;5144797;27;20046;-80
2022/09/08 11:08:25;;;;;;;4.55;2.70;;;;;;;;;;5133176;27;20424;-80
2022/09/08 11:11:01;;;;;;;2.97;2.60;;;;;;;;;;5136850;27;20039;-80
2022/09/08 11:13:31;;;;;;;3.20;2.90;;;;;;;;;;5132885;27;20054;-80
2022/09/08 11:16:15;;;;;;;4.18;3.40;;;;;;;;;;5143905;27;20043;-80
2022/09/08 11:18:40;;;;;;;4.68;3.53;;;;;;;;;;5139497;27;20051;-80
2022/09/08 11:21:26;;;;;;;5.07;3.70;;;;;;;;;;5135082;27;20050;-81
2022/09/08 11:24:06;;;;;;;4.30;3.97;;;;;;;;;;5122139;27;20820;-81
2022/09/08 11:26:54;;;;;;;5.20;4.47;;;;;;;;;;5126033;27;20043;-80
2022/09/08 11:29:22;;;;;;;4.95;4.05;;;;;;;;;;5143648;27;20043;-80
2022/09/08 11:32:21;;;;;;;4.53;4.13;;;;;;;;;;5133215;27;20039;-81
2022/09/08 11:34:53;;;;;;;4.82;3.95;;;;;;;;;;5088559;27;20049;-81
2022/09/08 11:37:28;;;;;;;6.60;4.67;;;;;;;;;;5117193;27;20057;-81
2022/09/08 11:40:13;;;;;;;5.43;4.93;;;;;;;;;;5143184;27;20071;-81
2022/09/08 11:42:39;;;;;;;6.22;5.25;;;;;;;;;;5130879;27;20455;-80
2022/09/08 11:45:05;;;;;;;5.95;5.28;;;;;;;;;;5152811;27;20095;-81
2022/09/08 11:47:46;;;;;;;6.38;5.68;;;;;;;;;;5146792;27;20122;-80
2022/09/08 11:50:19;;;;;;;5.68;5.20;;;;;;;;;;5125741;27;20046;-81
2022/09/08 11:52:54;;;;;;;7.35;6.30;;;;;;;;;;5146755;27;20435;-81
2022/09/08 11:55:26;;;;;;;6.75;5.82;;;;;;;;;;5131088;27;20039;-81
2022/09/08 11:57:55;;;;;;;6.20;5.70;;;;;;;;;;5147977;27;20046;-80
2022/09/08 12:00:29;;;;;;;6.95;6.22;;;;;;;;;;5146808;27;20045;-81
2022/09/08 12:02:54;;;;;;;;;;;;;;;;;;5132911;27;20039;-81
2022/09/08 12:05:39;;;;;;;7.03;6.35;;;;;;;;;;5128211;27;20386;-80
2022/09/08 12:08:24;;;;;;;7.15;6.47;;;;;;;;;;5151420;27;20034;-81
2022/09/08 12:10:50;;;;;;;7.25;6.65;;;;;;;;;;5151972;27;20049;-81
2022/09/08 12:13:35;;;;;;;8.18;7.47;;;;;;;;;;5130419;27;20072;-81
2022/09/08 12:16:07;;;;;;;7.95;7.20;;;;;;;;;;5151820;27;20084;-81
2022/09/08 12:18:45;;;;;;;8.40;7.60;;;;;;;;;;5151489;27;20106;-81
2022/09/08 12:21:12;;;;;;;8.60;7.80;;;;;;;;;;5126949;27;20039;-82
2022/09/08 12:23:55;;;;;;;8.63;7.70;;;;;;;;;;5124972;27;20046;-81
2022/09/08 12:26:41;;;;;;;8.57;7.80;;;;;;;;;;5132337;27;20047;-81
2022/09/08 12:29:24;;;;;;;10.73;8.38;;;;;;;;;;5122330;27;20042;-82
2022/09/08 12:31:59;;;;;;;8.75;7.95;;;;;;;;;;5145976;27;20038;-82
2022/09/08 12:34:43;;;;;;;8.70;7.85;;;;;;;;;;5131897;27;20133;-82
2022/09/08 12:37:15;;;;;;;8.82;8.05;;;;;;;;;;5124692;27;20055;-82
2022/09/08 12:40:01;;;;;;;10.38;8.50;;;;;;;;;;5149528;27;20095;-82
2022/09/08 12:42:47;;;;;;;9.55;8.60;;;;;;;;;;5130856;27;20051;-82
2022/09/08 12:45:48;;;;;;;7.72;4.82;;;;;;;;;;5149842;27;20037;-82
2022/09/08 12:48:33;;;;;;;5.25;4.75;;;;;;;;;;5043733;28;20047;-82
2022/09/08 12:51:05;;;;;;;6.03;5.50;;;;;;;;;;5131193;27;20058;-83
2022/09/08 12:53:37;;;;;;;5.13;4.45;;;;;;;;;;5150350;27;20043;-83
2022/09/08 12:56:20;;;;;;;5.93;4.50;;;;;;;;;;5145027;27;20030;-82
2022/09/08 12:59:00;;;;;;;3.92;3.20;;;;;;;;;;5151860;27;20049;-81
2022/09/08 13:01:32;;;;;;;4.32;3.47;;;;;;;;;;5134885;27;20739;-81
2022/09/08 13:03:59;;;;;;;5.47;3.30;;;;;;;;;;5128334;27;20074;-82
2022/09/08 13:06:32;;;;;;;4.03;2.90;;;;;;;;;;5151790;27;20082;-82
2022/09/08 13:09:01;;;;;;;3.25;2.95;;;;;;;;;;5152635;27;20122;-81
2022/09/08 13:11:27;;;;;;;5.43;3.17;;;;;;;;;;5151839;27;20050;-81
2022/09/08 13:13:56;;;;;;;4.10;3.15;;;;;;;;;;5126304;27;20055;-81
2022/09/08 13:16:28;;;;;;;5.85;3.45;;;;;;;;;;5141987;27;20085;-81
2022/09/08 13:19:00;;;;;;;5.78;3.42;;;;;;;;;;5146558;27;20134;-81
2022/09/08 13:21:32;;;;;;;4.03;3.63;;;;;;;;;;5132201;27;20043;-81
2022/09/08 13:24:13;;;;;;;5.75;3.47;;;;;;;;;;5125649;27;20069;-82
2022/09/08 13:26:42;;;;;;;3.30;3.00;;;;;;;;;;5143130;27;20397;-81
2022/09/08 13:29:27;;;;;;;4.10;3.13;;;;;;;;;;5151200;27;20046;-82
2022/09/08 13:32:11;;;;;;;3.33;2.88;;;;;;;;;;5138831;27;20397;-82
2022/09/08 13:34:53;;;;;;;4.70;3.25;;;;;;;;;;5126569;27;20043;-81
2022/09/08 13:37:37;;;;;;;5.70;2.92;;;;;;;;;;5150649;27;20066;-82
2022/09/08 13:40:17;;;;;;;4.22;2.65;;;;;;;;;;5140194;27;20107;-82
2022/09/08 13:42:49;;;;;;;3.60;2.88;;;;;;;;;;5134362;27;20206;-82
2022/09/08 13:45:23;;;;;;;3.00;2.70;;;;;;;;;;5152816;27;20389;-82
2022/09/08 13:48:06;;;;;;;5.03;3.00;;;;;;;;;;5150542;27;20043;-82
2022/09/08 13:50:32;;;;;;;;;;;;;;;;;;5127207;27;20074;-83
2022/09/08 13:52:58;;;;;;;4.03;2.60;;;;;;;;;;5128427;27;20501;-83
2022/09/08 13:55:25;;;;;;;5.13;2.50;;;;;;;;;;5133128;27;20423;-82
2022/09/08 13:58:01;;;;;;;3.72;2.55;;;;;;;;;;5131732;27;20437;-82
2022/09/08 14:00:27;;;;;;;3.22;2.40;;;;;;;;;;5134156;27;20045;-82
2022/09/08 14:02:53;;;;;;;3.45;2.60;;;;;;;;;;5135958;27;20062;-84
2022/09/08 14:05:22;;;;;;;5.13;2.80;;;;;;;;;;5131994;27;20486;-84
2022/09/08 14:07:55;;;;;;;5.43;3.15;;;;;;;;;;5128924;27;20118;-84
2022/09/08 14:10:32;;;;;;;3.95;3.05;;;;;;;;;;5148768;27;20379;-83
2022/09/08 14:13:02;;;;;;;2.95;2.10;;;;;;;;;;5145163;27;20058;-84
2022/09/08 14:15:28;;;;;;;2.38;2.10;;;;;;;;;;5131227;27;20055;-83
2022/09/08 14:18:24;;;;;;;3.35;2.25;;;;;;;;;;5144834;27;20168;-83
2022/09/08 14:20:59;;;;;;;4.20;2.40;;;;;;;;;;5112399;27;20452;-84
2022/09/08 14:23:41;;;;;;;3.40;2.30;;;;;;;;;;5147463;27;20051;-84
2022/09/08 14:26:22;;;;;;;7.25;2.80;;;;;;;;;;5120550;27;20187;-83
2022/09/08 14:28:52;;;;;;;4.88;3.17;;;;;;;;;;5129156;27;20078;-83
2022/09/08 14:31:34;;;;;;;5.00;3.20;;;;;;;;;;5128983;27;20129;-83
2022/09/08 14:34:14;;;;;;;4.55;3.10;;;;;;;;;;5149682;27;20041;-83
2022/09/08 14:37:01;;;;;;;3.38;3.05;;;;;;;;;;5147866;27;20037;-84
2022/09/08 14:39:27;;;;;;;5.40;3.42;;;;;;;;;;5133015;27;20498;-83
2022/09/08 14:41:55;;;;;;;4.00;3.00;;;;;;;;;;5134220;27;20070;-84
2022/09/08 14:44:29;;;;;;;3.72;3.10;;;;;;;;;;5132914;27;20518;-83
2022/09/08 14:47:02;;;;;;;5.32;3.10;;;;;;;;;;5127622;27;20133;-83
2022/09/08 14:49:49;;;;;;;6.28;3.45;;;;;;;;;;5141445;27;20101;-83
2022/09/08 14:52:15;;;;;;;4.63;3.00;;;;;;;;;;5123466;27;20496;-83
2022/09/08 14:54:52;;;;;;;4.00;3.35;;;;;;;;;;5120371;27;20043;-79
2022/09/08 14:57:30;;;;;;;4.68;3.03;;;;;;;;;;5141173;27;20035;-82
2022/09/08 15:00:38;;;;;;;4.80;3.00;;;;;;;;;;5141048;27;20054;-82
2022/09/08 15:03:20;;;;;;;7.25;3.03;;;;;;;;;;5132014;27;20073;-83
2022/09/08 15:05:48;;;;;;;5.10;2.50;;;;;;;;;;5105669;27;20056;-83